Time;durP1;ratioP1;P1;durP2;ratioP2;P2;SDS_P1;SDS_P2;PMS_P1;PMS_P2;Temp;Humidity;BMP_temperature;BMP_pressure;BME280_temperature;BME280_humidity;BME280_pressure;Samples;Min_cycle;Max_cycle;Signal;HPM_P1;HPM_P2
2022/12/10 00:00:06;;;;;;;46.35;23.27;;;;;;;;;;4899673;29;20048;-85
2022/12/10 00:02:33;;;;;;;39.17;20.98;;;;;;;;;;4900585;29;20052;-87
2022/12/10 00:04:59;;;;;;;48.13;24.83;;;;;;;;;;4899624;29;20052;-89
2022/12/10 00:07:25;;;;;;;46.78;23.00;;;;;;;;;;4899286;29;20052;-87
2022/12/10 00:09:51;;;;;;;51.28;25.58;;;;;;;;;;4899281;29;20059;-91
2022/12/10 00:12:17;;;;;;;48.00;25.17;;;;;;;;;;4884143;29;20048;-84
2022/12/10 00:14:43;;;;;;;50.13;24.42;;;;;;;;;;4883549;29;20051;-87
2022/12/10 00:17:09;;;;;;;53.22;23.85;;;;;;;;;;4900603;29;20044;-90
2022/12/10 00:19:35;;;;;;;44.58;21.95;;;;;;;;;;4882590;29;20052;-86
2022/12/10 00:22:02;;;;;;;46.42;24.65;;;;;;;;;;4898011;29;20044;-88
2022/12/10 00:24:28;;;;;;;43.28;21.92;;;;;;;;;;4898046;29;20074;-86
2022/12/10 00:26:54;;;;;;;43.35;24.48;;;;;;;;;;4897834;29;20052;-84
2022/12/10 00:29:20;;;;;;;52.15;23.90;;;;;;;;;;4897584;29;20080;-84
2022/12/10 00:31:46;;;;;;;48.60;24.23;;;;;;;;;;4882153;29;20045;-85
2022/12/10 00:34:12;;;;;;;46.65;24.02;;;;;;;;;;4882204;29;20409;-84
2022/12/10 00:36:41;;;;;;;47.08;22.90;;;;;;;;;;4897870;29;20513;-87
2022/12/10 00:39:08;;;;;;;58.42;25.63;;;;;;;;;;4897963;29;20044;-85
2022/12/10 00:41:34;;;;;;;53.63;25.83;;;;;;;;;;4897702;29;20131;-84
2022/12/10 00:44:00;;;;;;;46.25;23.77;;;;;;;;;;4881828;29;20052;-85
2022/12/10 00:46:27;;;;;;;47.40;23.17;;;;;;;;;;4881637;29;20048;-85
2022/12/10 00:48:53;;;;;;;47.33;22.65;;;;;;;;;;4897381;29;20041;-84
2022/12/10 00:51:20;;;;;;;54.45;25.52;;;;;;;;;;4897560;29;20539;-86
2022/12/10 00:53:47;;;;;;;45.83;24.20;;;;;;;;;;4881403;29;20483;-86
2022/12/10 00:56:14;;;;;;;50.63;25.02;;;;;;;;;;4897165;29;20493;-85
2022/12/10 00:58:41;;;;;;;53.38;24.67;;;;;;;;;;4881731;29;20506;-84
2022/12/10 01:01:21;;;;;;;48.75;25.17;;;;;;;;;;4881782;29;20041;-84
2022/12/10 01:03:48;;;;;;;54.83;26.25;;;;;;;;;;4897418;29;20406;-87
2022/12/10 01:06:14;;;;;;;52.60;25.00;;;;;;;;;;4896989;29;20506;-88
2022/12/10 01:08:40;;;;;;;47.17;23.80;;;;;;;;;;4896971;29;20493;-88
2022/12/10 01:11:07;;;;;;;48.78;23.52;;;;;;;;;;4896589;29;20206;-87
2022/12/10 01:13:33;;;;;;;60.30;26.08;;;;;;;;;;4896748;29;20048;-85
2022/12/10 01:16:03;;;;;;;49.83;25.08;;;;;;;;;;4880799;29;20051;-86
2022/12/10 01:18:29;;;;;;;44.67;25.30;;;;;;;;;;4880822;29;20085;-85
2022/12/10 01:20:55;;;;;;;50.22;24.67;;;;;;;;;;4881003;29;20403;-85
2022/12/10 01:23:21;;;;;;;51.85;24.85;;;;;;;;;;4866196;29;20052;-84
2022/12/10 01:25:47;;;;;;;51.72;28.15;;;;;;;;;;4880927;29;20115;-84
2022/12/10 01:28:13;;;;;;;52.65;26.98;;;;;;;;;;4896233;29;20056;-84
2022/12/10 01:30:39;;;;;;;51.55;26.25;;;;;;;;;;4896329;29;20597;-85
2022/12/10 01:33:05;;;;;;;50.78;26.20;;;;;;;;;;4896258;29;20088;-86
2022/12/10 01:35:31;;;;;;;54.03;26.67;;;;;;;;;;4896411;29;20134;-84
2022/12/10 01:37:57;;;;;;;49.63;25.80;;;;;;;;;;4896330;29;20126;-84
2022/12/10 01:40:25;;;;;;;52.35;27.00;;;;;;;;;;4896270;29;20171;-84
2022/12/10 01:42:51;;;;;;;60.42;27.60;;;;;;;;;;4881494;29;20132;-84
2022/12/10 01:45:17;;;;;;;56.78;27.92;;;;;;;;;;4881753;29;20080;-86
2022/12/10 01:47:43;;;;;;;54.47;26.08;;;;;;;;;;4897174;29;20104;-86
2022/12/10 01:50:09;;;;;;;64.95;29.38;;;;;;;;;;4880677;29;20056;-85
2022/12/10 01:52:36;;;;;;;60.35;26.02;;;;;;;;;;4895900;29;20105;-86
2022/12/10 01:55:02;;;;;;;60.30;28.05;;;;;;;;;;4896120;29;20049;-85
2022/12/10 01:57:28;;;;;;;52.17;26.63;;;;;;;;;;4896321;29;20048;-86
2022/12/10 01:59:59;;;;;;;60.70;28.98;;;;;;;;;;4880685;29;20571;-86
2022/12/10 02:02:25;;;;;;;51.33;28.13;;;;;;;;;;4896005;29;20041;-86
2022/12/10 02:04:57;;;;;;;52.53;26.60;;;;;;;;;;4896059;29;20087;-85
2022/12/10 02:07:42;;;;;;;60.78;26.17;;;;;;;;;;4880402;29;20048;-86
2022/12/10 02:10:18;;;;;;;60.65;27.75;;;;;;;;;;4880303;29;20100;-85
2022/12/10 02:12:49;;;;;;;58.85;30.23;;;;;;;;;;4896005;29;20048;-86
2022/12/10 02:15:17;;;;;;;50.88;26.85;;;;;;;;;;4879911;29;20045;-86
2022/12/10 02:17:49;;;;;;;52.45;28.02;;;;;;;;;;4880684;29;20382;-86
2022/12/10 02:20:15;;;;;;;56.90;28.13;;;;;;;;;;4895476;29;20131;-85
2022/12/10 02:22:46;;;;;;;59.83;27.52;;;;;;;;;;4895783;29;20143;-86
2022/12/10 02:25:13;;;;;;;53.45;27.20;;;;;;;;;;4895700;29;20084;-85
2022/12/10 02:27:48;;;;;;;50.20;27.02;;;;;;;;;;4895774;29;20053;-86
2022/12/10 02:30:14;;;;;;;57.83;28.60;;;;;;;;;;4895553;29;20045;-85
2022/12/10 02:32:41;;;;;;;62.88;27.90;;;;;;;;;;4895659;29;20049;-86
2022/12/10 02:35:14;;;;;;;56.88;28.70;;;;;;;;;;4880217;29;20490;-85
2022/12/10 02:37:44;;;;;;;57.30;27.83;;;;;;;;;;4895568;29;20041;-85
2022/12/10 02:40:13;;;;;;;54.13;28.15;;;;;;;;;;4895581;29;20045;-86
2022/12/10 02:42:41;;;;;;;50.88;26.58;;;;;;;;;;4895624;29;20446;-86
2022/12/10 02:45:08;;;;;;;55.55;27.55;;;;;;;;;;4879628;29;20045;-86
2022/12/10 02:47:35;;;;;;;57.53;28.52;;;;;;;;;;4895399;29;20052;-85
2022/12/10 02:50:01;;;;;;;55.42;27.58;;;;;;;;;;4895455;29;20044;-85
2022/12/10 02:52:27;;;;;;;57.67;28.38;;;;;;;;;;4879876;29;20135;-85
2022/12/10 02:54:53;;;;;;;56.83;27.70;;;;;;;;;;4895722;29;20053;-86
2022/12/10 02:57:22;;;;;;;55.30;26.65;;;;;;;;;;4895504;29;20059;-86
2022/12/10 02:59:57;;;;;;;60.42;26.58;;;;;;;;;;4879684;29;20131;-86
2022/12/10 03:02:30;;;;;;;57.00;28.40;;;;;;;;;;4895505;29;20057;-86
2022/12/10 03:04:56;;;;;;;53.28;26.13;;;;;;;;;;4896785;29;20048;-85
2022/12/10 03:07:34;;;;;;;59.10;27.67;;;;;;;;;;4883423;29;20108;-86
2022/12/10 03:10:04;;;;;;;59.33;28.58;;;;;;;;;;4883564;29;20070;-85
2022/12/10 03:12:37;;;;;;;67.30;27.90;;;;;;;;;;4883495;29;20053;-85
2022/12/10 03:15:04;;;;;;;48.90;24.88;;;;;;;;;;4898629;29;20056;-89
2022/12/10 03:17:32;;;;;;;55.05;26.25;;;;;;;;;;4898934;29;20056;-87
2022/12/10 03:19:59;;;;;;;59.35;27.30;;;;;;;;;;4898781;29;20523;-90
2022/12/10 03:22:25;;;;;;;56.90;27.38;;;;;;;;;;4915088;29;20108;-84
2022/12/10 03:24:52;;;;;;;57.92;28.55;;;;;;;;;;4883534;29;20041;-88
2022/12/10 03:27:20;;;;;;;59.20;28.38;;;;;;;;;;4898918;29;20080;-88
2022/12/10 03:29:49;;;;;;;58.40;27.75;;;;;;;;;;4899013;29;20101;-86
2022/12/10 03:32:15;;;;;;;63.03;29.15;;;;;;;;;;4883365;29;20048;-88
2022/12/10 03:34:42;;;;;;;61.13;27.55;;;;;;;;;;4899186;29;20059;-87
2022/12/10 03:37:09;;;;;;;65.82;29.60;;;;;;;;;;4899289;29;20052;-88
2022/12/10 03:39:35;;;;;;;57.03;29.00;;;;;;;;;;4899229;29;20041;-88
2022/12/10 03:42:01;;;;;;;62.38;29.73;;;;;;;;;;4883596;29;20451;-88
2022/12/10 03:44:28;;;;;;;62.72;28.85;;;;;;;;;;4883247;29;20565;-87
2022/12/10 03:46:54;;;;;;;62.03;30.27;;;;;;;;;;4898982;29;20049;-91
2022/12/10 03:49:20;;;;;;;65.10;27.50;;;;;;;;;;4882650;29;20060;-85
2022/12/10 03:51:46;;;;;;;54.25;28.35;;;;;;;;;;4882765;29;20135;-85
2022/12/10 03:54:12;;;;;;;61.22;27.45;;;;;;;;;;4898179;29;20048;-85
2022/12/10 03:56:38;;;;;;;65.97;31.90;;;;;;;;;;4898332;29;20438;-86
2022/12/10 03:59:05;;;;;;;57.75;29.38;;;;;;;;;;4898285;29;20561;-84
2022/12/10 04:01:31;;;;;;;55.90;27.77;;;;;;;;;;4914155;29;20050;-85
2022/12/10 04:03:57;;;;;;;65.63;30.65;;;;;;;;;;4898253;29;20196;-84
2022/12/10 04:06:23;;;;;;;64.90;30.13;;;;;;;;;;4897824;29;20115;-85
2022/12/10 04:08:49;;;;;;;60.70;28.80;;;;;;;;;;4898072;29;20052;-85
2022/12/10 04:11:15;;;;;;;59.28;28.95;;;;;;;;;;4882340;29;20044;-85
2022/12/10 04:16:27;;;;;;;67.55;30.77;;;;;;;;;;4882017;29;20051;-85
2022/12/10 04:18:56;;;;;;;65.95;32.22;;;;;;;;;;4882501;29;20064;-85
2022/12/10 04:26:56;;;;;;;82.78;33.05;;;;;;;;;;4881854;29;20143;-85
2022/12/10 04:29:26;;;;;;;77.95;31.73;;;;;;;;;;4897364;29;20045;-84
2022/12/10 04:31:53;;;;;;;83.07;28.77;;;;;;;;;;4897371;29;20044;-85
2022/12/10 04:34:19;;;;;;;70.10;30.13;;;;;;;;;;4881872;29;20486;-83
2022/12/10 04:36:46;;;;;;;85.30;32.72;;;;;;;;;;4898055;29;20459;-87
2022/12/10 04:39:12;;;;;;;72.88;31.33;;;;;;;;;;4882679;29;20051;-83
2022/12/10 04:41:40;;;;;;;61.80;28.65;;;;;;;;;;4881960;29;20135;-83
2022/12/10 04:44:06;;;;;;;89.40;34.75;;;;;;;;;;4881530;29;20486;-83
2022/12/10 04:46:32;;;;;;;76.30;31.08;;;;;;;;;;4897355;29;20498;-83
2022/12/10 04:48:58;;;;;;;73.85;30.38;;;;;;;;;;4897493;29;20052;-84
2022/12/10 04:51:24;;;;;;;58.40;27.63;;;;;;;;;;4881980;29;20135;-83
2022/12/10 04:53:50;;;;;;;97.82;31.83;;;;;;;;;;4897427;29;20048;-83
2022/12/10 04:56:16;;;;;;;91.10;28.88;;;;;;;;;;4881665;29;20044;-89
2022/12/10 04:58:42;;;;;;;77.85;30.65;;;;;;;;;;4881612;29;20051;-83
2022/12/10 05:01:09;;;;;;;81.43;30.92;;;;;;;;;;4881547;29;20045;-84
2022/12/10 05:03:36;;;;;;;101.78;31.50;;;;;;;;;;4882022;29;20582;-82
2022/12/10 05:06:03;;;;;;;118.57;30.85;;;;;;;;;;4881401;29;20406;-84
2022/12/10 05:08:29;;;;;;;70.78;28.67;;;;;;;;;;4896990;29;20055;-85
2022/12/10 05:10:55;;;;;;;61.97;28.98;;;;;;;;;;4881508;29;20044;-83
2022/12/10 05:13:21;;;;;;;160.43;34.05;;;;;;;;;;4897032;29;20079;-85
2022/12/10 05:15:47;;;;;;;108.20;32.28;;;;;;;;;;4881438;29;20045;-87
2022/12/10 05:18:13;;;;;;;121.50;31.75;;;;;;;;;;4879256;29;20101;-85
2022/12/10 05:20:39;;;;;;;106.63;29.23;;;;;;;;;;4896961;29;20064;-85
2022/12/10 05:25:57;;;;;;;141.45;32.55;;;;;;;;;;4881165;29;20064;-84
2022/12/10 05:28:23;;;;;;;91.72;29.52;;;;;;;;;;4880536;29;20052;-85
2022/12/10 05:30:49;;;;;;;86.90;25.75;;;;;;;;;;4896469;29;20571;-85
2022/12/10 05:33:16;;;;;;;68.38;27.65;;;;;;;;;;4896787;29;20433;-86
2022/12/10 05:35:42;;;;;;;124.93;32.05;;;;;;;;;;4896624;29;20048;-84
2022/12/10 05:38:10;;;;;;;148.68;30.58;;;;;;;;;;4866080;29;20044;-85
2022/12/10 05:40:37;;;;;;;148.70;36.85;;;;;;;;;;4881181;29;20084;-85
2022/12/10 05:43:03;;;;;;;90.97;27.55;;;;;;;;;;4896760;29;20056;-84
2022/12/10 05:45:29;;;;;;;131.93;32.28;;;;;;;;;;4896143;29;20048;-86
2022/12/10 05:47:55;;;;;;;123.78;32.17;;;;;;;;;;4880980;29;20490;-85
2022/12/10 05:50:21;;;;;;;94.65;28.83;;;;;;;;;;4880995;29;20161;-84
2022/12/10 05:52:47;;;;;;;65.13;24.10;;;;;;;;;;4880693;29;20135;-84
2022/12/10 05:55:13;;;;;;;77.47;29.73;;;;;;;;;;4880634;29;20048;-84
2022/12/10 05:57:39;;;;;;;105.88;33.67;;;;;;;;;;4896156;29;20044;-85
2022/12/10 06:00:05;;;;;;;100.43;30.95;;;;;;;;;;4880821;29;20313;-84
2022/12/10 06:02:34;;;;;;;131.23;29.58;;;;;;;;;;4880865;29;20517;-85
2022/12/10 06:05:00;;;;;;;163.05;31.30;;;;;;;;;;4880625;29;20442;-85
2022/12/10 06:07:26;;;;;;;167.02;32.60;;;;;;;;;;4896067;29;20048;-85
2022/12/10 06:09:52;;;;;;;171.48;31.92;;;;;;;;;;4895941;29;20048;-85
2022/12/10 06:12:18;;;;;;;164.38;34.67;;;;;;;;;;4880421;29;20053;-84
2022/12/10 06:14:45;;;;;;;194.77;34.13;;;;;;;;;;4880152;29;20482;-85
2022/12/10 06:17:11;;;;;;;183.52;32.80;;;;;;;;;;4880596;29;20052;-85
2022/12/10 06:19:39;;;;;;;150.32;30.58;;;;;;;;;;4895713;29;20088;-83
2022/12/10 06:22:05;;;;;;;177.77;35.38;;;;;;;;;;4896008;29;20052;-86
2022/12/10 06:24:31;;;;;;;148.10;33.25;;;;;;;;;;4880536;29;20051;-84
2022/12/10 06:26:57;;;;;;;124.07;28.67;;;;;;;;;;4896065;29;20149;-83
2022/12/10 06:29:23;;;;;;;131.20;30.48;;;;;;;;;;4895851;29;20048;-85
2022/12/10 06:31:49;;;;;;;119.03;29.83;;;;;;;;;;4880169;29;20139;-84
2022/12/10 06:34:15;;;;;;;193.65;34.20;;;;;;;;;;4895551;29;20056;-86
2022/12/10 06:36:41;;;;;;;139.60;28.02;;;;;;;;;;4895583;29;20049;-86
2022/12/10 06:39:07;;;;;;;134.30;31.67;;;;;;;;;;4881720;29;20041;-83
2022/12/10 06:41:33;;;;;;;148.25;30.05;;;;;;;;;;4899476;29;20048;-86
2022/12/10 06:44:00;;;;;;;136.27;31.33;;;;;;;;;;4899213;29;20049;-84
2022/12/10 06:46:29;;;;;;;104.10;26.65;;;;;;;;;;4883765;29;20044;-86
2022/12/10 06:48:56;;;;;;;187.35;34.15;;;;;;;;;;4883786;29;20573;-85
2022/12/10 06:51:22;;;;;;;117.50;30.00;;;;;;;;;;4899673;29;20473;-85
2022/12/10 06:53:48;;;;;;;179.55;30.50;;;;;;;;;;4899471;29;20055;-86
2022/12/10 06:56:18;;;;;;;125.20;29.63;;;;;;;;;;4885576;29;20044;-86
2022/12/10 06:58:45;;;;;;;124.18;29.30;;;;;;;;;;4902200;29;20092;-86
2022/12/10 07:01:16;;;;;;;170.52;30.40;;;;;;;;;;4902108;29;20048;-82
2022/12/10 07:03:42;;;;;;;84.30;22.73;;;;;;;;;;4901251;29;20398;-87
2022/12/10 07:06:09;;;;;;;149.40;29.23;;;;;;;;;;4885475;29;20502;-85
2022/12/10 07:08:35;;;;;;;90.40;24.30;;;;;;;;;;4884909;29;20052;-83
2022/12/10 07:11:05;;;;;;;72.15;25.10;;;;;;;;;;4899617;29;20568;-84
2022/12/10 07:13:31;;;;;;;161.13;31.90;;;;;;;;;;4883909;29;20048;-83
2022/12/10 07:15:58;;;;;;;141.27;29.55;;;;;;;;;;4899838;29;20079;-84
2022/12/10 07:18:24;;;;;;;60.78;19.83;;;;;;;;;;4883888;29;20053;-83
2022/12/10 07:20:50;;;;;;;82.97;23.92;;;;;;;;;;4899118;29;20497;-84
2022/12/10 07:23:16;;;;;;;100.15;24.75;;;;;;;;;;4883374;29;20573;-83
2022/12/10 07:25:42;;;;;;;119.80;26.35;;;;;;;;;;4883506;29;20144;-84
2022/12/10 07:28:08;;;;;;;79.07;25.23;;;;;;;;;;4899046;29;20053;-84
2022/12/10 07:30:34;;;;;;;95.10;24.92;;;;;;;;;;4898634;29;20055;-85
2022/12/10 07:33:00;;;;;;;67.32;26.73;;;;;;;;;;4898696;29;20056;-84
2022/12/10 07:35:26;;;;;;;74.82;24.92;;;;;;;;;;4898555;29;20044;-82
2022/12/10 07:37:52;;;;;;;103.43;26.13;;;;;;;;;;4898709;29;20049;-84
2022/12/10 07:40:18;;;;;;;110.30;27.70;;;;;;;;;;4883081;29;20054;-83
2022/12/10 07:42:44;;;;;;;83.32;25.05;;;;;;;;;;4898466;29;20077;-83
2022/12/10 07:45:11;;;;;;;104.20;25.98;;;;;;;;;;4897798;29;20143;-84
2022/12/10 07:47:38;;;;;;;98.22;26.95;;;;;;;;;;4897946;29;20053;-83
2022/12/10 07:50:05;;;;;;;81.70;27.05;;;;;;;;;;4881578;29;20474;-85
2022/12/10 07:52:31;;;;;;;97.75;26.15;;;;;;;;;;4882588;29;20051;-85
2022/12/10 07:54:57;;;;;;;100.38;27.08;;;;;;;;;;4898436;29;20458;-84
2022/12/10 07:57:23;;;;;;;124.32;26.80;;;;;;;;;;4897949;29;20567;-84
2022/12/10 07:59:49;;;;;;;62.38;23.10;;;;;;;;;;4897889;29;20517;-84
2022/12/10 08:02:15;;;;;;;122.07;27.30;;;;;;;;;;4898509;29;20052;-84
2022/12/10 08:04:41;;;;;;;81.35;25.05;;;;;;;;;;4898298;29;20044;-83
2022/12/10 08:07:07;;;;;;;108.05;28.50;;;;;;;;;;4882704;29;20112;-84
2022/12/10 08:09:34;;;;;;;125.07;25.48;;;;;;;;;;4882707;29;20506;-85
2022/12/10 08:12:00;;;;;;;72.88;26.42;;;;;;;;;;4898433;29;20056;-83
2022/12/10 08:14:26;;;;;;;104.68;25.30;;;;;;;;;;4898077;29;20052;-83
2022/12/10 08:16:52;;;;;;;97.07;25.35;;;;;;;;;;4898228;29;20071;-85
2022/12/10 08:19:18;;;;;;;110.03;26.35;;;;;;;;;;4897696;29;20148;-85
2022/12/10 08:21:44;;;;;;;133.95;29.25;;;;;;;;;;4897471;29;20060;-82
2022/12/10 08:24:10;;;;;;;113.63;26.90;;;;;;;;;;4897778;29;20116;-83
2022/12/10 08:26:37;;;;;;;59.92;24.73;;;;;;;;;;4898110;29;20045;-86
2022/12/10 08:29:03;;;;;;;82.82;23.52;;;;;;;;;;4882626;29;20059;-85
2022/12/10 08:31:29;;;;;;;138.85;29.50;;;;;;;;;;4882566;29;20044;-83
2022/12/10 08:33:55;;;;;;;146.25;29.63;;;;;;;;;;4882448;29;20044;-84
2022/12/10 08:36:21;;;;;;;62.58;20.88;;;;;;;;;;4882427;29;20053;-85
2022/12/10 08:38:47;;;;;;;51.65;19.58;;;;;;;;;;4882086;29;20536;-85
2022/12/10 08:41:21;;;;;;;87.68;22.67;;;;;;;;;;4897808;29;20055;-83
2022/12/10 08:43:48;;;;;;;51.72;18.95;;;;;;;;;;4897596;29;20048;-85
2022/12/10 08:46:14;;;;;;;55.50;20.83;;;;;;;;;;4897144;29;20160;-84
2022/12/10 08:48:40;;;;;;;51.45;20.52;;;;;;;;;;4897474;29;20081;-85
2022/12/10 08:51:07;;;;;;;84.60;22.40;;;;;;;;;;4897777;29;20041;-83
2022/12/10 08:53:33;;;;;;;72.15;24.83;;;;;;;;;;4897551;29;20045;-83
2022/12/10 08:55:59;;;;;;;76.72;19.50;;;;;;;;;;4897603;29;20189;-82
2022/12/10 08:58:25;;;;;;;101.55;21.98;;;;;;;;;;4882167;29;20044;-84
2022/12/10 09:00:52;;;;;;;93.22;22.27;;;;;;;;;;4897077;29;20041;-85
2022/12/10 09:03:18;;;;;;;54.35;20.23;;;;;;;;;;4881876;29;20048;-83
2022/12/10 09:05:44;;;;;;;44.72;18.55;;;;;;;;;;4897303;29;20044;-83
2022/12/10 09:08:11;;;;;;;86.30;19.52;;;;;;;;;;4881771;29;20091;-84
2022/12/10 09:10:37;;;;;;;77.78;22.73;;;;;;;;;;4881234;29;20044;-83
2022/12/10 09:13:03;;;;;;;86.18;19.90;;;;;;;;;;4897178;29;20462;-86
2022/12/10 09:15:29;;;;;;;75.28;18.50;;;;;;;;;;4881279;29;20064;-84
2022/12/10 09:17:55;;;;;;;58.67;17.05;;;;;;;;;;4865607;29;20048;-85
2022/12/10 09:20:22;;;;;;;50.10;15.15;;;;;;;;;;4896990;29;20060;-84
2022/12/10 09:22:48;;;;;;;52.92;17.83;;;;;;;;;;4896867;29;20064;-84
2022/12/10 09:25:17;;;;;;;51.60;19.92;;;;;;;;;;4881542;29;20055;-86
2022/12/10 09:27:43;;;;;;;79.88;20.27;;;;;;;;;;4881389;29;20048;-86
2022/12/10 09:30:10;;;;;;;54.30;18.50;;;;;;;;;;4881081;29;20052;-85
2022/12/10 09:32:37;;;;;;;54.65;19.42;;;;;;;;;;4882234;29;20044;-86
2022/12/10 09:35:03;;;;;;;75.53;20.20;;;;;;;;;;4897855;29;20045;-86
2022/12/10 09:37:29;;;;;;;45.90;16.98;;;;;;;;;;4881683;29;20053;-85
2022/12/10 09:39:55;;;;;;;73.85;19.63;;;;;;;;;;4881439;29;20048;-84
2022/12/10 09:42:48;;;;;;;73.55;19.85;;;;;;;;;;4896964;29;20081;-85
2022/12/10 09:45:26;;;;;;;48.80;16.95;;;;;;;;;;4896471;29;20081;-86
2022/12/10 09:47:57;;;;;;;78.35;19.15;;;;;;;;;;4896512;29;20081;-85
2022/12/10 09:50:42;;;;;;;52.15;17.65;;;;;;;;;;4881350;29;20052;-85
2022/12/10 09:53:12;;;;;;;103.68;19.38;;;;;;;;;;4881088;29;20087;-83
2022/12/10 09:55:40;;;;;;;41.95;16.30;;;;;;;;;;4880907;29;20056;-84
2022/12/10 09:58:10;;;;;;;51.25;17.70;;;;;;;;;;4880863;29;20045;-83
2022/12/10 10:00:38;;;;;;;55.75;14.88;;;;;;;;;;4896899;29;20075;-85
2022/12/10 10:03:15;;;;;;;57.47;16.20;;;;;;;;;;4912287;29;20074;-84
2022/12/10 10:05:51;;;;;;;59.75;18.38;;;;;;;;;;4880991;29;20040;-83
2022/12/10 10:08:28;;;;;;;40.55;17.55;;;;;;;;;;4881183;29;20506;-87
2022/12/10 10:10:54;;;;;;;45.85;16.77;;;;;;;;;;4880988;29;20076;-86
2022/12/10 10:13:35;;;;;;;80.60;17.80;;;;;;;;;;4896553;29;20139;-85
2022/12/10 10:16:17;;;;;;;77.38;18.42;;;;;;;;;;4880398;29;20502;-85
2022/12/10 10:19:02;;;;;;;69.30;19.98;;;;;;;;;;4880824;29;20586;-85
2022/12/10 10:21:28;;;;;;;96.90;23.60;;;;;;;;;;4895902;29;20056;-87
2022/12/10 10:23:57;;;;;;;74.65;16.88;;;;;;;;;;4896280;29;20049;-86
2022/12/10 10:26:25;;;;;;;71.03;19.75;;;;;;;;;;4880909;29;20045;-84
2022/12/10 10:28:55;;;;;;;76.43;18.52;;;;;;;;;;4896342;29;20722;-87
2022/12/10 10:31:27;;;;;;;94.78;19.15;;;;;;;;;;4897970;29;20044;-86
2022/12/10 10:34:00;;;;;;;77.75;18.23;;;;;;;;;;4896421;29;20056;-85
2022/12/10 10:36:34;;;;;;;57.38;19.85;;;;;;;;;;4896513;29;20096;-87
2022/12/10 10:39:18;;;;;;;43.28;16.35;;;-0.20;99.90;;;;;;4881010;29;20076;-87
2022/12/10 10:41:46;;;;;;;93.53;19.65;;;;;;;;;;4912664;29;20056;-87
2022/12/10 10:44:22;;;;;;;59.33;14.82;;;;;;;;;;4896505;29;20049;-87
2022/12/10 10:46:52;;;;;;;87.38;19.10;;;;;;;;;;4881664;29;20048;-86
2022/12/10 10:49:22;;;;;;;61.03;17.20;;;;;;;;;;4896852;29;20049;-86
2022/12/10 10:51:48;;;;;;;39.10;15.65;;;;;;;;;;4896999;29;20383;-87
2022/12/10 10:54:37;;;;;;;51.38;17.05;;;-0.30;99.90;;;;;;4881550;29;20100;-86
2022/12/10 10:57:23;;;;;;;56.67;18.00;;;;;;;;;;4865920;29;20045;-84
2022/12/10 10:59:49;;;;;;;37.28;15.43;;;;;;;;;;4881125;29;20080;-88
2022/12/10 11:02:35;;;;;;;37.38;16.90;;;;;;;;;;4881784;29;20397;-86
2022/12/10 11:05:08;;;;;;;44.97;16.33;;;;;;;;;;4881527;29;20045;-88
2022/12/10 11:07:36;;;;;;;44.55;15.68;;;;;;;;;;4896626;29;20088;-88
2022/12/10 11:10:03;;;;;;;67.18;17.35;;;;;;;;;;4881398;29;20045;-88
2022/12/10 11:12:30;;;;;;;60.38;18.52;;;;;;;;;;4880235;29;20513;-83
2022/12/10 11:14:56;;;;;;;42.75;16.17;;;;;;;;;;4880096;29;20047;-82
2022/12/10 11:17:24;;;;;;;54.53;17.80;;;;;;;;;;4895954;29;20583;-83
2022/12/10 11:20:16;;;;;;;49.13;17.58;;;;;;;;;;4879216;29;20053;-82
2022/12/10 11:22:52;;;;;;;59.05;22.52;;;;;;;;;;4912283;29;20051;-85
2022/12/10 11:25:20;;;;;;;40.90;17.27;;;;;;;;;;4913080;29;20052;-86
2022/12/10 11:27:47;;;;;;;39.15;16.85;;;;;;;;;;4915641;29;20051;-82
2022/12/10 11:30:22;;;;;;;48.42;20.27;;;;;;;;;;4899879;29;20401;-83
2022/12/10 11:32:54;;;;;;;56.85;17.83;;;;;;;;;;4899248;29;20048;-83
2022/12/10 11:35:25;;;;;;;34.17;14.52;;;;;;;;;;4915233;29;20044;-86
2022/12/10 11:38:10;;;;;;;35.17;15.70;;;;;;;;;;4914850;29;20040;-83
2022/12/10 11:41:02;;;;;;;38.28;18.85;;;;;;;;;;4899219;29;20131;-85
2022/12/10 11:43:28;;;;;;;37.13;15.02;;;;;;;;;;4868711;29;20069;-83
2022/12/10 11:46:13;;;;;;;39.03;15.30;;;;;;;;;;4914351;29;20052;-82
2022/12/10 11:48:49;;;;;;;35.88;17.00;;;;;;;;;;4914476;29;20076;-82
2022/12/10 11:51:39;;;;;;;39.15;16.63;;;0.10;99.90;;;;;;4899686;29;20052;-84
2022/12/10 11:54:24;;;;;;;35.90;15.02;;;;;;;;;;4898342;29;20045;-83
2022/12/10 11:56:57;;;;;;;43.38;17.77;;;;;;;;;;4898365;29;20056;-82
2022/12/10 11:59:33;;;;;;;42.58;17.42;;;;;;;;;;4899314;29;20056;-83
2022/12/10 12:02:20;;;;;;;46.65;18.60;;;;;;;;;;4914078;29;20144;-82
2022/12/10 12:04:56;;;;;;;62.90;19.52;;;;;;;;;;4898548;29;20055;-83
2022/12/10 12:07:25;;;;;;;38.63;16.48;;;;;;;;;;4913734;29;20049;-85
2022/12/10 12:09:57;;;;;;;34.47;17.38;;;;;;;;;;4914271;29;20084;-82
2022/12/10 12:12:57;;;;;;;67.53;19.75;;;0.20;99.90;;;;;;4898290;29;20044;-83
2022/12/10 12:15:31;;;;;;;47.63;19.05;;;;;;;;;;4882294;29;20048;-83
2022/12/10 12:18:04;;;;;;;45.13;19.42;;;;;;;;;;4898731;29;20049;-82
2022/12/10 12:20:34;;;;;;;71.10;20.88;;;;;;;;;;4897930;29;20112;-83
2022/12/10 12:23:05;;;;;;;63.75;21.80;;;;;;;;;;4882429;29;20052;-82
2022/12/10 12:25:40;;;;;;;43.60;18.60;;;;;;;;;;4897367;29;20051;-82
2022/12/10 12:28:17;;;;;;;63.60;20.40;;;;;;;;;;4882218;29;20053;-82
2022/12/10 12:30:45;;;;;;;58.85;19.85;;;;;;;;;;4898340;29;20391;-88
2022/12/10 12:33:21;;;;;;;56.90;16.13;;;;;;;;;;4898528;29;20423;-91
2022/12/10 12:35:49;;;;;;;52.67;19.30;;;;;;;;;;4882540;29;20044;-88
2022/12/10 12:38:24;;;;;;;52.60;18.95;;;;;;;;;;4897823;29;20132;-86
2022/12/10 12:41:04;;;;;;;74.10;24.00;;;;;;;;;;4882750;29;20048;-87
2022/12/10 12:43:39;;;;;;;36.25;17.77;;;;;;;;;;4897922;29;20045;-86
2022/12/10 12:46:11;;;;;;;57.13;20.77;;;;;;;;;;4897572;29;20080;-83
2022/12/10 12:49:02;;;;;;;46.42;19.95;;;0.40;99.90;;;;;;4897828;29;20059;-86
2022/12/10 12:51:48;;;;;;;49.28;20.23;;;0.30;99.90;;;;;;4882438;29;20566;-89
2022/12/10 12:54:14;;;;;;;53.45;19.98;;;;;;;;;;4867142;29;20060;-91
2022/12/10 12:57:06;;;;;;;44.05;18.98;;;;;;;;;;4882707;29;20146;-89
2022/12/10 12:59:37;;;;;;;49.00;21.88;;;;;;;;;;4897547;29;20057;-86
2022/12/10 13:02:18;;;;;;;48.22;20.13;;;;;;;;;;4882227;29;20075;-86
2022/12/10 13:04:44;;;;;;;54.65;17.85;;;;;;;;;;4897443;29;20048;-87
2022/12/10 13:07:10;;;;;;;42.97;18.05;;;;;;;;;;4881651;29;20053;-87
2022/12/10 13:09:43;;;;;;;40.72;18.63;;;;;;;;;;4897456;29;20052;-87
2022/12/10 13:12:16;;;;;;;39.65;18.30;;;;;;;;;;4882173;29;20049;-89
2022/12/10 13:15:02;;;;;;;49.85;17.67;;;;;;;;;;4881762;29;20053;-87
2022/12/10 13:17:32;;;;;;;47.10;19.20;;;;;;;;;;4881759;29;20044;-86
2022/12/10 13:20:30;;;;;;;47.72;20.45;;;;;;;;;;4897202;29;20044;-85
2022/12/10 13:22:56;;;;;;;50.72;20.08;;;;;;;;;;4878085;29;20064;-90
2022/12/10 13:25:38;;;;;;;46.10;17.67;;;;;;;;;;4862630;29;20052;-90
2022/12/10 13:28:17;;;;;;;47.33;20.60;;;;;;;;;;4863061;29;20101;-89
2022/12/10 13:30:43;;;;;;;33.90;16.05;;;;;;;;;;4878642;29;20052;-91
2022/12/10 13:33:18;;;;;;;38.72;16.63;;;;;;;;;;4878671;29;20073;-89
2022/12/10 13:36:04;;;;;;;45.95;18.00;;;;;;;;;;4863020;29;20052;-88
2022/12/10 13:38:39;;;;;;;44.55;18.98;;;;;;;;;;4878652;29;20045;-91
2022/12/10 13:46:57;;;;;;;48.08;20.92;;;;;;;;;;4862595;29;20215;-88
2022/12/10 13:49:25;;;;;;;51.00;20.63;;;;;;;;;;4877417;29;20052;-90
2022/12/10 13:51:59;;;;;;;51.33;19.75;;;;;;;;;;4878488;29;20073;-88
2022/12/10 13:54:39;;;;;;;49.10;19.48;;;;;;;;;;4878245;29;20176;-91
2022/12/10 13:57:24;;;;;;;48.10;20.70;;;;;;;;;;4863349;29;20448;-91
2022/12/10 13:59:57;;;;;;;46.05;19.13;;;;;;;;;;4862698;29;20055;-88
2022/12/10 14:02:44;;;;;;;49.88;20.45;;;;;;;;;;4862766;29;20236;-92
2022/12/10 14:05:28;;;;;;;34.20;15.73;;;;;;;;;;4877881;29;20495;-87
2022/12/10 14:07:56;;;;;;;49.38;20.75;;;;;;;;;;4878188;29;20049;-82
2022/12/10 14:10:25;;;;;;;44.60;20.63;;;;;;;;;;4877956;29;20045;-85
2022/12/10 14:12:51;;;;;;;38.17;16.20;;;;;;;;;;4878037;29;20052;-88
2022/12/10 14:15:21;;;;;;;41.45;18.88;;;;;;;;;;4862639;29;20535;-86
2022/12/10 14:17:49;;;;;;;36.28;19.77;;;;;;;;;;4861907;29;20059;-82
2022/12/10 14:20:18;;;;;;;54.22;21.20;;;;;;;;;;4862911;29;20467;-82
2022/12/10 14:22:51;;;;;;;47.90;20.55;;;;;;;;;;4880745;29;20096;-82
2022/12/10 14:25:22;;;;;;;55.25;22.55;;;;;;;;;;4896195;29;20055;-83
2022/12/10 14:27:52;;;;;;;50.75;19.85;;;;;;;;;;4880933;29;20055;-83
2022/12/10 14:30:20;;;;;;;51.38;20.10;;;;;;;;;;4881191;29;20112;-82
2022/12/10 14:32:46;;;;;;;44.60;18.67;;;;;;;;;;4880922;29;20060;-82
2022/12/10 14:35:14;;;;;;;42.83;19.15;;;;;;;;;;4896008;29;20045;-83
2022/12/10 14:37:41;;;;;;;46.40;19.90;;;;;;;;;;4880441;29;20049;-84
2022/12/10 14:40:08;;;;;;;50.53;21.67;;;;;;;;;;4881347;29;20052;-85
2022/12/10 14:42:34;;;;;;;45.97;21.40;;;;;;;;;;4881222;29;20059;-85